Huddy, KY (41535)

10:26 PM EDT on August 22, 2014 (GMT -0400)
West Williamson, WV | Change Station
CLOSE
Current Station
Personal Weather Station
Location: Williamson, WV
Elevation: 682 ft
Nearby Weather Stations

Elev 682 ft 37.68 °N, 82.29 °W | Updated 4 seconds ago

Light Rain
Light Rain
73.6 °F
Feels Like 73.6 °F
N
0.0
Wind Variable Wind from ESE
Gusts 0.0 mph

Today
High -- | Low -- °F
--% Chance of Precip.
Yesterday
High -- | Low -- °F
Precip. -- in
6:50 AM 8:12 PM
Waning Crescent, 6% visible
Pressure 30.05 in
Visibility 10.0 miles
Clouds Scattered Clouds 300 ft
Scattered Clouds 7000 ft
Mostly Cloudy 11000 ft
Dew Point 73 °F
Humidity 98%
Rainfall 0.99 in
Snow Depth Not available.
UV 0 out of 12
Pollen 7.60 out of 12
Air Quality Not available.
Flu Activity Not available.
METAR KSJS 230215Z AUTO 14004KT 10SM -RA SCT003 SCT070 BKN110 22/22 A3005 RMK AO2 T02210220

More Conditions Fewer Conditions

Pressure 30.05 in
Visibility 10.0 miles
Clouds Scattered Clouds 300 ft
Scattered Clouds 7000 ft
Mostly Cloudy 11000 ft
Dew Point 73 °F
Humidity 98%
Rainfall 0.99 in
Snow Depth Not available.
UV 0 out of 12
Pollen 7.60 out of 12
Air Quality Not available.
Flu Activity Not available.
METAR KSJS 230215Z AUTO 14004KT 10SM -RA SCT003 SCT070 BKN110 22/22 A3005 RMK AO2 T02210220

More Conditions Fewer Conditions

10-Day Weather Forecast

Almanac

Astronomy

Aug. 22, 2014 Rise Set
Actual Time 6:50 AM EDT 8:12 PM EDT
Civil Twilight 6:23 AM EDT 8:39 PM EDT
Nautical Twilight 5:50 AM EDT 9:12 PM EDT
Astronomical Twilight 5:16 AM EDT 9:46 PM EDT
Moon 4:13 AM EDT (8/22) 6:18 PM EDT (8/22)
Length of Visible Light 14h 16m
Length of Day
13h 21m
Tomorrow will be 2m 13s shorter.
Waning Crescent, 6% of the Moon is Illuminated
Today
Waning Crescent
Aug 25
New
Sep 2
First Quarter
Sep 8
Full
Sep 15
Last Quarter

Today's Extremes

State Highs State Lows

Community

WunderPhotos

Upload Photos

1,746,345 photos uploaded!

WunderBlogs® & News

Nearby

Snow Depth

Station Depth Elevation
No new snow has been reported.

Earthquake Activity

City Distance Mag. Time & Date
No recent earthquake activity has been reported nearby.
Minimum magnitude displayed is 2.5.

Coastal Water Temperatures

Place Temperature
No Stations Reporting

Nearby Weather Stations